Antalya, Turkey

5:30 PM EEST on September 22, 2014 (GMT +0300)
Antalya | Change Station
CLOSE
Current Station
Airport
Location: Antalya,
Elevation: 174 ft
Nearby Weather Stations

Elev 174 ft 36.90 °N, 30.80 °E | Updated 10 minutes ago

Partly Cloudy
Partly Cloudy
82 °F
Feels Like 85 °F
N
9
Wind Variable Wind from South

Today
High -- | Low -- °F
--% Chance of Precip.
Yesterday
High -- | Low -- °F
Precip. -- in
6:44 AM 6:54 PM
Waning Crescent, 3% visible
Pressure 29.77 in
Visibility 6.2 miles
Clouds Few 3000 ft
Heat Index 85 °F
Dew Point 68 °F
Humidity 62%
Rainfall 0.00 in
Snow Depth Not available.
UV 1 out of 12
Pollen Not available.
Air Quality Not available.
Flu Activity Not available.
METAR LTAI 221420Z 17008KT 130V190 9999 FEW030 28/20 Q1008 NOSIG

More Conditions Fewer Conditions

Pressure 29.77 in
Visibility 6.2 miles
Clouds Few 3000 ft
Heat Index 85 °F
Dew Point 68 °F
Humidity 62%
Rainfall 0.00 in
Snow Depth Not available.
UV 1 out of 12
Pollen Not available.
Air Quality Not available.
Flu Activity Not available.
METAR LTAI 221420Z 17008KT 130V190 9999 FEW030 28/20 Q1008 NOSIG

More Conditions Fewer Conditions

10-Day Weather Forecast

Almanac

Astronomy

Sep. 22, 2014 Rise Set
Actual Time 6:44 AM EEST 6:54 PM EEST
Civil Twilight 6:18 AM EEST 7:20 PM EEST
Nautical Twilight 5:48 AM EEST 7:50 PM EEST
Astronomical Twilight 5:17 AM EEST 8:21 PM EEST
Moon 4:56 AM EEST 5:50 PM EEST
Length of Visible Light 13h 01m
Length of Day
12h 09m
Tomorrow will be 2m 20s shorter.
Waning Crescent, 3% of the Moon is Illuminated
Today
Waning Crescent
Sep 24
New
Oct 1
First Quarter
Oct 8
Full
Oct 15
Last Quarter

Today's Extremes

Country Highs Country Lows

Community

WunderPhotos

Upload Photos

1,755,448 photos uploaded!

WunderBlogs® & News

By Dr. Jeff Masters
Director of Meteorology, Weather Underground
By Kari Strenfel
Meteorologist, Weather Underground
By Christopher C. Burt
Weather Historian, Weather Underground
September 22, 2014
September 22, 2014
September 22, 2014

Nearby

Snow Depth

Not available.

Earthquake Activity

City Distance Mag. Time & Date
No recent earthquake activity has been reported nearby.
Minimum magnitude displayed is 2.5.

Coastal Water Temperatures

Place Temperature
No Stations Reporting

Nearby Weather Stations